createdAt,value
2022-09-28T00:01:26.522Z,8.30
2022-09-28T00:03:59.365Z,8.70
2022-09-28T00:06:29.680Z,10.50
2022-09-28T00:08:58.014Z,8.80
2022-09-28T00:11:28.773Z,9.00
2022-09-28T00:14:01.826Z,10.60
2022-09-28T00:16:34.463Z,10.30
2022-09-28T00:19:03.154Z,9.30
2022-09-28T00:21:34.019Z,9.40
2022-09-28T00:24:14.262Z,9.40
2022-09-28T00:26:51.821Z,8.50
2022-09-28T00:29:21.967Z,9.00
2022-09-28T00:31:52.995Z,8.30
2022-09-28T00:34:20.448Z,8.20
2022-09-28T00:36:47.933Z,8.80
2022-09-28T00:39:16.380Z,9.90
2022-09-28T00:41:45.241Z,8.90
2022-09-28T00:44:37.453Z,8.10
2022-09-28T00:47:32.662Z,9.30
2022-09-28T00:50:08.798Z,9.50
2022-09-28T00:53:00.940Z,10.20
2022-09-28T00:55:44.190Z,10.10
2022-09-28T00:58:21.185Z,10.50
2022-09-28T01:00:49.379Z,9.20
2022-09-28T01:03:17.022Z,9.30
2022-09-28T01:05:46.189Z,9.00
2022-09-28T01:08:14.928Z,8.90
2022-09-28T01:10:43.311Z,9.70
2022-09-28T01:13:12.792Z,10.40
2022-09-28T01:16:17.778Z,10.60
2022-09-28T01:19:43.800Z,10.20
2022-09-28T01:22:45.146Z,9.90
2022-09-28T01:25:41.917Z,9.70
2022-09-28T01:28:16.956Z,9.90
2022-09-28T01:31:14.574Z,9.30
2022-09-28T01:33:50.735Z,9.80
2022-09-28T01:36:50.282Z,10.00
2022-09-28T01:39:37.096Z,10.30
2022-09-28T01:42:30.932Z,10.10
2022-09-28T01:45:07.527Z,10.00
2022-09-28T01:47:40.353Z,10.50
2022-09-28T01:50:17.660Z,10.20
2022-09-28T01:53:05.707Z,9.30
2022-09-28T01:55:41.669Z,8.90
2022-09-28T01:58:42.284Z,8.90
2022-09-28T02:01:19.581Z,8.50
2022-09-28T02:04:00.203Z,12.40
2022-09-28T02:06:52.435Z,9.90
2022-09-28T02:09:33.802Z,9.80
2022-09-28T02:12:15.659Z,11.10
2022-09-28T02:14:48.621Z,12.00
2022-09-28T02:17:15.975Z,9.70
2022-09-28T02:19:47.813Z,9.50
2022-09-28T02:23:02.255Z,9.60
2022-09-28T02:25:45.334Z,10.10
2022-09-28T02:28:13.818Z,10.00
2022-09-28T02:30:44.458Z,10.10
2022-09-28T02:33:31.901Z,10.50
2022-09-28T02:36:00.661Z,11.20
2022-09-28T02:38:28.455Z,10.60
2022-09-28T02:41:10.978Z,11.20
2022-09-28T02:44:04.257Z,10.40
2022-09-28T02:46:37.556Z,10.00
2022-09-28T02:49:43.211Z,10.10
2022-09-28T02:52:23.875Z,11.90
2022-09-28T02:55:20.595Z,12.00
2022-09-28T02:58:03.152Z,10.60
2022-09-28T03:03:23.366Z,10.00
2022-09-28T03:06:25.246Z,10.60
2022-09-28T03:09:22.754Z,10.40
2022-09-28T03:11:56.938Z,10.80
2022-09-28T03:14:24.615Z,11.00
2022-09-28T03:16:54.701Z,12.30
2022-09-28T03:19:31.623Z,10.60
2022-09-28T03:22:01.318Z,10.70
2022-09-28T03:24:28.693Z,11.60
2022-09-28T03:26:55.915Z,11.30
2022-09-28T03:29:23.471Z,12.20
2022-09-28T03:31:55.454Z,12.10
2022-09-28T03:34:22.931Z,11.50
2022-09-28T03:36:50.289Z,10.90
2022-09-28T03:39:17.637Z,10.90
2022-09-28T03:41:45.230Z,12.20
2022-09-28T03:44:12.486Z,11.80
2022-09-28T03:46:39.933Z,11.70
2022-09-28T03:49:10.105Z,11.50
2022-09-28T03:51:37.933Z,10.50
2022-09-28T03:54:05.705Z,11.30
2022-09-28T03:56:33.109Z,11.90
2022-09-28T03:59:04.640Z,11.90
2022-09-28T04:01:32.641Z,12.80
2022-09-28T04:04:00.268Z,11.70
2022-09-28T04:06:27.956Z,11.00
2022-09-28T04:08:55.807Z,11.30
2022-09-28T04:11:23.763Z,11.30
2022-09-28T04:13:52.811Z,11.40
2022-09-28T04:16:20.360Z,11.30
2022-09-28T04:19:07.883Z,12.10
2022-09-28T04:22:32.525Z,12.40
2022-09-28T04:25:01.908Z,11.10
2022-09-28T04:27:47.942Z,10.50
2022-09-28T04:30:16.416Z,11.80
2022-09-28T04:32:49.091Z,12.50
2022-09-28T04:35:21.132Z,12.00
2022-09-28T04:40:17.546Z,11.00
2022-09-28T04:42:55.276Z,12.50
2022-09-28T04:45:27.952Z,11.90
2022-09-28T04:48:08.908Z,11.90
2022-09-28T04:51:00.412Z,11.40
2022-09-28T04:53:28.126Z,12.10
2022-09-28T04:56:00.004Z,10.70
2022-09-28T04:58:29.031Z,11.30
2022-09-28T05:01:07.988Z,12.00
2022-09-28T05:03:57.833Z,11.50
2022-09-28T05:06:40.592Z,12.40
2022-09-28T05:09:09.151Z,12.20
2022-09-28T05:11:36.501Z,12.40
2022-09-28T05:14:07.560Z,12.60
2022-09-28T05:16:35.514Z,12.00
2022-09-28T05:19:21.270Z,12.10
2022-09-28T05:21:49.400Z,12.90
2022-09-28T05:24:16.939Z,12.80
2022-09-28T05:26:49.677Z,12.90
2022-09-28T05:29:17.079Z,13.20
2022-09-28T05:31:50.539Z,12.20
2022-09-28T05:34:26.336Z,13.10
2022-09-28T05:36:55.156Z,14.60
2022-09-28T05:39:22.468Z,13.60
2022-09-28T05:41:49.698Z,15.90
2022-09-28T05:44:17.009Z,16.80
2022-09-28T05:46:44.600Z,19.70
2022-09-28T05:49:13.317Z,21.80
2022-09-28T05:51:40.692Z,23.30
2022-09-28T05:54:09.473Z,23.10
2022-09-28T05:56:40.835Z,24.70
2022-09-28T05:59:08.897Z,22.00
2022-09-28T06:01:37.034Z,21.30
2022-09-28T06:04:08.553Z,21.20
2022-09-28T06:06:36.208Z,20.70
2022-09-28T06:09:03.800Z,17.70
2022-09-28T06:11:32.348Z,21.00
2022-09-28T06:14:04.606Z,19.90
2022-09-28T06:16:32.486Z,17.90
2022-09-28T06:19:00.751Z,16.40
2022-09-28T06:21:47.624Z,13.30
2022-09-28T06:24:15.043Z,12.60
2022-09-28T06:26:42.526Z,13.00
2022-09-28T06:29:10.054Z,12.10
2022-09-28T06:31:37.360Z,11.80
2022-09-28T06:34:04.601Z,13.70
2022-09-28T06:36:31.822Z,12.20
2022-09-28T06:38:59.315Z,12.00
2022-09-28T06:41:26.656Z,11.80
2022-09-28T06:43:53.901Z,11.70
2022-09-28T06:47:14.595Z,12.80
2022-09-28T06:49:56.258Z,11.50
2022-09-28T06:52:41.856Z,11.30
2022-09-28T06:55:51.135Z,10.00
2022-09-28T06:58:20.931Z,9.80
2022-09-28T07:00:51.467Z,8.80
2022-09-28T07:03:21.676Z,9.30
2022-09-28T07:06:04.442Z,8.90
2022-09-28T07:08:34.523Z,8.60
2022-09-28T07:11:20.722Z,8.40
2022-09-28T07:14:06.712Z,8.40
2022-09-28T07:16:56.216Z,8.40
2022-09-28T07:19:21.229Z,8.00
2022-09-28T07:22:02.568Z,8.60
2022-09-28T07:24:33.230Z,9.10
2022-09-28T07:27:47.144Z,8.10
2022-09-28T07:30:33.535Z,8.50
2022-09-28T07:33:12.144Z,8.40
2022-09-28T07:35:53.403Z,8.30
2022-09-28T07:38:22.513Z,8.40
2022-09-28T07:41:08.299Z,9.00
2022-09-28T07:43:36.179Z,8.30
2022-09-28T07:46:14.501Z,7.90
2022-09-28T07:48:49.091Z,7.40
2022-09-28T07:52:03.400Z,8.30
2022-09-28T07:54:39.317Z,8.00
2022-09-28T07:58:01.250Z,8.00
2022-09-28T08:00:47.770Z,7.80
2022-09-28T08:03:18.314Z,8.10
2022-09-28T08:05:46.333Z,7.90
2022-09-28T08:08:15.120Z,6.70
2022-09-28T08:10:46.801Z,7.90
2022-09-28T08:13:27.034Z,8.40
2022-09-28T08:16:14.666Z,7.60
2022-09-28T08:18:50.906Z,5.80
2022-09-28T08:21:42.465Z,6.40
2022-09-28T08:24:09.773Z,3.90
2022-09-28T08:26:37.097Z,3.70
2022-09-28T08:29:04.587Z,4.50
2022-09-28T08:31:48.000Z,4.70
2022-09-28T08:34:41.527Z,3.40
2022-09-28T08:37:08.978Z,3.40
2022-09-28T08:39:42.206Z,3.70
2022-09-28T08:43:15.072Z,4.50
2022-09-28T08:46:40.449Z,4.30
2022-09-28T08:49:43.725Z,3.80
2022-09-28T08:53:02.046Z,3.70
2022-09-28T08:56:28.050Z,2.90
2022-09-28T08:59:08.278Z,3.20
2022-09-28T09:02:03.140Z,3.30
2022-09-28T09:04:33.196Z,2.60
2022-09-28T09:08:02.824Z,2.60
2022-09-28T09:10:51.811Z,2.70
2022-09-28T09:14:16.016Z,3.00
2022-09-28T09:17:02.339Z,2.70
2022-09-28T09:20:01.607Z,2.70
2022-09-28T09:23:05.740Z,2.80
2022-09-28T09:25:54.485Z,2.90
2022-09-28T09:28:25.752Z,2.50
2022-09-28T09:31:22.741Z,2.10
2022-09-28T09:34:23.363Z,2.70
2022-09-28T09:37:23.860Z,2.10
2022-09-28T09:41:02.812Z,2.00
2022-09-28T09:44:41.250Z,1.80
2022-09-28T09:47:37.557Z,2.40
2022-09-28T09:50:49.982Z,1.90
2022-09-28T09:53:38.729Z,1.80
2022-09-28T09:56:30.312Z,1.90
2022-09-28T09:59:33.169Z,1.90
2022-09-28T10:02:35.095Z,1.70
2022-09-28T10:05:12.169Z,1.90
2022-09-28T10:07:58.360Z,1.90
2022-09-28T10:10:37.387Z,1.70
2022-09-28T10:13:10.795Z,1.80
2022-09-28T10:15:40.769Z,1.50
2022-09-28T10:18:16.251Z,2.00
2022-09-28T10:20:46.795Z,1.90
2022-09-28T10:24:00.435Z,1.90
2022-09-28T10:26:40.138Z,2.00
2022-09-28T10:29:20.357Z,2.60
2022-09-28T10:31:51.052Z,2.00
2022-09-28T10:34:35.558Z,2.30
2022-09-28T10:37:11.634Z,1.80
2022-09-28T10:39:55.756Z,2.30
2022-09-28T10:42:29.640Z,2.00
2022-09-28T10:45:23.028Z,2.00
2022-09-28T10:47:50.833Z,2.10
2022-09-28T10:50:27.761Z,2.40
2022-09-28T10:53:20.842Z,2.10
2022-09-28T10:56:41.532Z,2.60
2022-09-28T10:59:28.357Z,2.20
2022-09-28T11:02:25.685Z,2.50
2022-09-28T11:04:59.603Z,2.70
2022-09-28T11:07:32.946Z,2.70
2022-09-28T11:10:02.385Z,2.40
2022-09-28T11:12:43.528Z,3.30
2022-09-28T11:15:19.978Z,2.40
2022-09-28T11:17:47.891Z,2.10
2022-09-28T11:20:35.142Z,2.40
2022-09-28T11:23:23.465Z,2.30
2022-09-28T11:26:02.266Z,2.30
2022-09-28T11:28:34.046Z,2.20
2022-09-28T11:31:07.557Z,2.40
2022-09-28T11:34:58.605Z,2.60
2022-09-28T11:37:57.514Z,2.30
2022-09-28T11:41:14.207Z,2.10
2022-09-28T11:43:58.169Z,2.40
2022-09-28T11:47:15.002Z,2.30
2022-09-28T11:50:40.305Z,2.80
2022-09-28T11:53:31.314Z,2.40
2022-09-28T11:56:26.315Z,2.30
2022-09-28T11:59:11.267Z,2.40
2022-09-28T12:01:48.422Z,2.70
2022-09-28T12:04:46.298Z,2.30
2022-09-28T12:07:23.003Z,2.40
2022-09-28T12:09:58.143Z,2.20
2022-09-28T12:13:00.571Z,2.70
2022-09-28T12:16:07.494Z,2.50
2022-09-28T12:19:05.509Z,2.30
2022-09-28T12:22:00.587Z,2.20
2022-09-28T12:24:41.703Z,2.40
2022-09-28T12:27:43.331Z,2.10
2022-09-28T12:30:27.302Z,2.10
2022-09-28T12:33:12.858Z,2.50
2022-09-28T12:36:25.762Z,3.70
2022-09-28T12:39:35.522Z,3.00
2022-09-28T12:42:38.832Z,2.70
2022-09-28T12:49:03.068Z,2.70
2022-09-28T12:51:51.090Z,3.50
2022-09-28T12:54:38.475Z,2.10
2022-09-28T12:57:36.142Z,3.30
2022-09-28T13:00:03.794Z,2.00
2022-09-28T13:03:03.227Z,2.10
2022-09-28T13:05:39.335Z,1.80
2022-09-28T13:08:44.958Z,1.70
2022-09-28T13:11:54.296Z,1.80
2022-09-28T13:14:52.814Z,1.80
2022-09-28T13:17:41.228Z,1.60
2022-09-28T13:20:17.669Z,1.90
2022-09-28T13:22:54.749Z,2.10
2022-09-28T13:25:27.160Z,2.40
2022-09-28T13:28:06.013Z,1.70
2022-09-28T13:30:38.941Z,2.40
2022-09-28T13:33:14.215Z,2.60
2022-09-28T13:35:43.780Z,2.40
2022-09-28T13:38:17.243Z,2.60
2022-09-28T13:41:03.516Z,2.60
2022-09-28T13:44:12.665Z,2.30
2022-09-28T13:47:04.232Z,2.30
2022-09-28T13:50:25.437Z,2.60
2022-09-28T13:53:18.902Z,2.60
2022-09-28T13:56:26.374Z,2.70
2022-09-28T13:59:04.973Z,2.20
2022-09-28T14:01:40.927Z,2.30
2022-09-28T14:04:21.596Z,2.40
2022-09-28T14:07:08.991Z,2.30
2022-09-28T14:10:52.382Z,2.10
2022-09-28T14:16:17.626Z,2.50
2022-09-28T14:18:57.389Z,2.60
2022-09-28T14:22:04.069Z,2.20
2022-09-28T14:24:37.436Z,2.40
2022-09-28T14:27:13.630Z,2.60
2022-09-28T14:29:41.333Z,2.20
2022-09-28T14:32:08.522Z,2.90
2022-09-28T14:34:46.100Z,2.10
2022-09-28T14:37:51.913Z,2.20
2022-09-28T14:40:54.410Z,1.90
2022-09-28T14:43:44.153Z,2.20
2022-09-28T14:46:11.466Z,2.50
2022-09-28T14:49:14.250Z,2.10
2022-09-28T14:54:10.208Z,1.60
2022-09-28T14:56:51.910Z,2.10
2022-09-28T14:59:30.044Z,1.80
2022-09-28T15:02:11.492Z,1.60
2022-09-28T15:05:14.363Z,1.50
2022-09-28T15:07:51.449Z,1.30
2022-09-28T15:10:35.797Z,1.70
2022-09-28T15:13:20.348Z,1.70
2022-09-28T15:15:53.557Z,1.40
2022-09-28T15:19:10.104Z,1.30
2022-09-28T15:21:41.097Z,1.50
2022-09-28T15:24:34.798Z,1.40
2022-09-28T15:27:18.483Z,1.50
2022-09-28T15:30:21.686Z,1.40
2022-09-28T15:32:50.154Z,1.70
2022-09-28T15:35:25.939Z,1.70
2022-09-28T15:37:55.145Z,1.60
2022-09-28T15:40:25.730Z,1.40
2022-09-28T15:42:59.040Z,1.40
2022-09-28T15:45:40.078Z,1.60
2022-09-28T15:48:33.126Z,2.00
2022-09-28T15:51:11.240Z,2.00
2022-09-28T15:54:09.152Z,1.90
2022-09-28T15:57:02.042Z,2.20
2022-09-28T15:59:37.817Z,2.20
2022-09-28T16:02:25.185Z,2.70
2022-09-28T16:05:01.185Z,3.00
2022-09-28T16:07:40.598Z,3.90
2022-09-28T16:10:11.246Z,3.60
2022-09-28T16:12:51.805Z,3.10
2022-09-28T16:15:32.177Z,2.80
2022-09-28T16:18:20.600Z,5.00
2022-09-28T16:20:55.751Z,3.90
2022-09-28T16:23:31.694Z,4.00
2022-09-28T16:26:05.980Z,2.30
2022-09-28T16:28:34.596Z,4.60
2022-09-28T16:31:26.835Z,5.10
2022-09-28T16:34:01.013Z,8.00
2022-09-28T16:36:43.160Z,8.60
2022-09-28T16:39:18.813Z,8.20
2022-09-28T16:41:56.484Z,8.20
2022-09-28T16:44:30.187Z,7.00
2022-09-28T16:47:32.256Z,7.10
2022-09-28T16:50:24.210Z,5.30
2022-09-28T16:53:38.503Z,6.10
2022-09-28T16:56:49.815Z,5.70
2022-09-28T16:59:25.643Z,6.80
2022-09-28T17:02:46.178Z,8.60
2022-09-28T17:06:30.458Z,7.50
2022-09-28T17:09:45.214Z,6.00
2022-09-28T17:12:38.680Z,9.20
2022-09-28T17:15:07.739Z,6.20
2022-09-28T17:17:38.183Z,8.00
2022-09-28T17:20:27.704Z,10.60
2022-09-28T17:22:55.971Z,15.10
2022-09-28T17:25:25.630Z,12.80
2022-09-28T17:27:57.067Z,11.60
2022-09-28T17:30:25.825Z,24.60
2022-09-28T17:32:53.787Z,8.50
2022-09-28T17:35:25.425Z,5.00
2022-09-28T17:37:54.025Z,4.00
2022-09-28T17:40:28.173Z,3.90
2022-09-28T17:42:57.123Z,4.30
2022-09-28T17:45:28.092Z,4.40
2022-09-28T17:47:55.556Z,4.70
2022-09-28T17:50:30.246Z,5.30
2022-09-28T17:52:59.534Z,5.90
2022-09-28T17:55:31.163Z,4.20
2022-09-28T17:58:02.662Z,4.70
2022-09-28T18:00:31.303Z,5.40
2022-09-28T18:02:58.660Z,5.00
2022-09-28T18:05:28.650Z,5.30
2022-09-28T18:07:58.467Z,4.90
2022-09-28T18:10:30.132Z,5.10
2022-09-28T18:12:57.529Z,5.40
2022-09-28T18:15:24.858Z,5.60
2022-09-28T18:17:52.205Z,8.30
2022-09-28T18:20:19.747Z,5.70
2022-09-28T18:22:46.923Z,4.90
2022-09-28T18:25:14.309Z,5.50
2022-09-28T18:27:41.598Z,5.10
2022-09-28T18:30:09.353Z,5.50
2022-09-28T18:32:37.149Z,5.20
2022-09-28T18:35:07.382Z,5.40
2022-09-28T18:37:39.543Z,5.50
2022-09-28T18:40:14.869Z,5.50
2022-09-28T18:42:42.325Z,6.20
2022-09-28T18:45:10.802Z,6.40
2022-09-28T18:47:39.526Z,5.30
2022-09-28T18:50:07.747Z,4.90
2022-09-28T18:52:39.480Z,5.60
2022-09-28T18:55:08.284Z,5.20
2022-09-28T18:57:36.155Z,5.20
2022-09-28T19:00:10.559Z,6.50
2022-09-28T19:02:38.245Z,5.60
2022-09-28T19:05:06.360Z,5.50
2022-09-28T19:07:34.018Z,6.00
2022-09-28T19:10:01.218Z,5.70
2022-09-28T19:12:28.452Z,4.80
2022-09-28T19:14:56.027Z,4.80
2022-09-28T19:17:23.394Z,5.10
2022-09-28T19:19:51.689Z,5.30
2022-09-28T19:22:18.930Z,5.50
2022-09-28T19:24:46.208Z,5.20
2022-09-28T19:27:13.458Z,5.20
2022-09-28T19:29:40.904Z,5.50
2022-09-28T19:32:08.226Z,5.30
2022-09-28T19:34:35.478Z,5.00
2022-09-28T19:37:03.615Z,4.80
2022-09-28T19:39:31.916Z,5.10
2022-09-28T19:42:00.712Z,4.70
2022-09-28T19:44:29.182Z,4.80
2022-09-28T19:47:09.460Z,5.00
2022-09-28T19:49:39.815Z,5.70
2022-09-28T19:52:15.348Z,5.10
2022-09-28T19:54:59.718Z,5.50
2022-09-28T19:57:30.303Z,5.00
2022-09-28T20:00:02.036Z,4.70
2022-09-28T20:02:34.145Z,5.60
2022-09-28T20:05:01.600Z,5.20
2022-09-28T20:07:32.310Z,5.60
2022-09-28T20:09:59.709Z,5.60
2022-09-28T20:12:26.924Z,5.20
2022-09-28T20:14:54.180Z,5.90
2022-09-28T20:17:21.474Z,5.20
2022-09-28T20:19:51.139Z,5.10
2022-09-28T20:22:19.531Z,4.90
2022-09-28T20:24:46.872Z,5.00
2022-09-28T20:27:14.137Z,4.40
2022-09-28T20:29:42.586Z,4.60
2022-09-28T20:32:11.130Z,5.00
2022-09-28T20:34:38.403Z,5.70
2022-09-28T20:37:05.761Z,5.70
2022-09-28T20:39:33.489Z,5.00
2022-09-28T20:42:01.011Z,5.10
2022-09-28T20:44:28.219Z,4.90
2022-09-28T20:46:56.230Z,5.60
2022-09-28T20:49:24.381Z,5.50
2022-09-28T20:51:51.664Z,5.90
2022-09-28T20:54:20.847Z,5.60
2022-09-28T20:56:48.355Z,6.70
2022-09-28T20:59:15.780Z,5.50
2022-09-28T21:01:43.412Z,5.20
2022-09-28T21:04:11.001Z,5.40
2022-09-28T21:06:41.318Z,5.00
2022-09-28T21:09:10.785Z,5.50
2022-09-28T21:11:39.759Z,5.50
2022-09-28T21:14:09.745Z,5.60
2022-09-28T21:16:37.959Z,6.50
2022-09-28T21:19:05.117Z,6.00
2022-09-28T21:21:32.514Z,6.60
2022-09-28T21:23:59.888Z,5.90
2022-09-28T21:26:30.739Z,6.20
2022-09-28T21:29:05.431Z,6.30
2022-09-28T21:31:40.709Z,6.50
2022-09-28T21:34:19.982Z,6.20
2022-09-28T21:36:50.641Z,6.00
2022-09-28T21:39:19.772Z,6.40
2022-09-28T21:41:47.528Z,6.00
2022-09-28T21:44:14.817Z,6.40
2022-09-28T21:46:42.509Z,5.90
2022-09-28T21:49:10.264Z,5.80
2022-09-28T21:51:37.630Z,5.60
2022-09-28T21:54:05.039Z,5.50
2022-09-28T21:56:32.207Z,5.40
2022-09-28T21:59:00.722Z,5.40
2022-09-28T22:01:28.810Z,4.90
2022-09-28T22:03:57.181Z,5.60
2022-09-28T22:06:27.849Z,5.50
2022-09-28T22:08:55.723Z,4.80
2022-09-28T22:11:27.021Z,6.00
2022-09-28T22:13:59.658Z,6.20
2022-09-28T22:16:30.295Z,5.70
2022-09-28T22:18:58.692Z,7.10
2022-09-28T22:21:32.208Z,5.70
2022-09-28T22:24:01.902Z,5.60
2022-09-28T22:26:31.373Z,6.80
2022-09-28T22:29:05.306Z,7.40
2022-09-28T22:31:36.121Z,5.90
2022-09-28T22:34:04.751Z,5.50
2022-09-28T22:36:34.534Z,5.80
2022-09-28T22:39:05.735Z,4.30
2022-09-28T22:41:33.118Z,5.10
2022-09-28T22:44:00.698Z,7.00
2022-09-28T22:46:31.234Z,5.10
2022-09-28T22:48:59.608Z,5.30
2022-09-28T22:51:29.091Z,4.30
2022-09-28T22:53:57.370Z,4.80
2022-09-28T22:56:25.284Z,5.00
2022-09-28T22:58:52.694Z,4.80
2022-09-28T23:01:29.248Z,6.10
2022-09-28T23:03:57.630Z,5.30
2022-09-28T23:06:28.464Z,5.00
2022-09-28T23:08:56.179Z,5.10
2022-09-28T23:11:23.282Z,4.40
2022-09-28T23:13:56.786Z,4.90
2022-09-28T23:16:26.103Z,4.40
2022-09-28T23:18:54.787Z,4.80
2022-09-28T23:21:25.385Z,4.70
2022-09-28T23:23:56.660Z,5.20
2022-09-28T23:26:28.539Z,4.60
2022-09-28T23:28:55.894Z,4.80
2022-09-28T23:31:27.378Z,4.60
2022-09-28T23:34:01.119Z,4.40
2022-09-28T23:36:28.561Z,4.20
2022-09-28T23:38:55.744Z,4.30
2022-09-28T23:41:23.268Z,4.80
2022-09-28T23:43:50.491Z,4.70
2022-09-28T23:46:21.025Z,4.10
2022-09-28T23:48:49.566Z,4.30
2022-09-28T23:51:16.881Z,4.30
2022-09-28T23:53:45.020Z,4.50
2022-09-28T23:56:14.046Z,4.50
2022-09-28T23:58:41.205Z,4.20
